sensor_id;sensor_type;location;lat;lon;timestamp;P1;durP1;ratioP1;P2;durP2;ratioP2
56567;SDS011;42456;49.956;20.004;2022-10-28T00:00:47;17.62;;;8.40;;
56567;SDS011;42456;49.956;20.004;2022-10-28T00:03:13;17.73;;;7.90;;
56567;SDS011;42456;49.956;20.004;2022-10-28T00:05:40;15.13;;;8.08;;
56567;SDS011;42456;49.956;20.004;2022-10-28T00:08:06;18.40;;;8.23;;
56567;SDS011;42456;49.956;20.004;2022-10-28T00:10:33;16.37;;;7.87;;
56567;SDS011;42456;49.956;20.004;2022-10-28T00:12:59;13.90;;;6.87;;
56567;SDS011;42456;49.956;20.004;2022-10-28T00:15:25;15.55;;;7.42;;
56567;SDS011;42456;49.956;20.004;2022-10-28T00:17:52;15.05;;;7.35;;
56567;SDS011;42456;49.956;20.004;2022-10-28T00:20:18;13.62;;;7.15;;
56567;SDS011;42456;49.956;20.004;2022-10-28T00:22:45;15.40;;;7.35;;
56567;SDS011;42456;49.956;20.004;2022-10-28T00:25:11;14.35;;;6.97;;
56567;SDS011;42456;49.956;20.004;2022-10-28T00:27:37;14.33;;;7.12;;
56567;SDS011;42456;49.956;20.004;2022-10-28T00:30:04;13.62;;;7.40;;
56567;SDS011;42456;49.956;20.004;2022-10-28T00:32:31;15.72;;;6.87;;
56567;SDS011;42456;49.956;20.004;2022-10-28T00:34:57;15.05;;;7.05;;
56567;SDS011;42456;49.956;20.004;2022-10-28T00:37:24;15.25;;;7.15;;
56567;SDS011;42456;49.956;20.004;2022-10-28T00:39:50;15.88;;;7.28;;
56567;SDS011;42456;49.956;20.004;2022-10-28T00:42:17;15.58;;;7.22;;
56567;SDS011;42456;49.956;20.004;2022-10-28T00:44:56;12.45;;;6.40;;
56567;SDS011;42456;49.956;20.004;2022-10-28T00:50:23;13.13;;;6.65;;
56567;SDS011;42456;49.956;20.004;2022-10-28T00:53:07;14.40;;;6.28;;
56567;SDS011;42456;49.956;20.004;2022-10-28T00:55:37;14.03;;;7.33;;
56567;SDS011;42456;49.956;20.004;2022-10-28T00:58:03;16.30;;;7.70;;
56567;SDS011;42456;49.956;20.004;2022-10-28T01:00:32;12.43;;;6.55;;
56567;SDS011;42456;49.956;20.004;2022-10-28T01:02:58;13.22;;;6.78;;
56567;SDS011;42456;49.956;20.004;2022-10-28T01:05:26;13.18;;;6.42;;
56567;SDS011;42456;49.956;20.004;2022-10-28T01:10:36;12.03;;;6.28;;
56567;SDS011;42456;49.956;20.004;2022-10-28T01:13:53;12.47;;;6.42;;
56567;SDS011;42456;49.956;20.004;2022-10-28T01:21:42;12.25;;;6.53;;
56567;SDS011;42456;49.956;20.004;2022-10-28T01:27:22;14.13;;;6.47;;
56567;SDS011;42456;49.956;20.004;2022-10-28T01:38:11;12.65;;;6.17;;
56567;SDS011;42456;49.956;20.004;2022-10-28T01:46:36;12.50;;;6.47;;
56567;SDS011;42456;49.956;20.004;2022-10-28T01:49:18;12.25;;;6.30;;
56567;SDS011;42456;49.956;20.004;2022-10-28T01:51:57;12.63;;;6.17;;
56567;SDS011;42456;49.956;20.004;2022-10-28T01:54:26;12.60;;;6.62;;
56567;SDS011;42456;49.956;20.004;2022-10-28T01:56:56;15.95;;;6.78;;
56567;SDS011;42456;49.956;20.004;2022-10-28T01:59:25;14.33;;;6.58;;
56567;SDS011;42456;49.956;20.004;2022-10-28T02:01:54;13.22;;;6.60;;
56567;SDS011;42456;49.956;20.004;2022-10-28T02:04:21;13.22;;;7.45;;
56567;SDS011;42456;49.956;20.004;2022-10-28T02:06:51;11.55;;;6.53;;
56567;SDS011;42456;49.956;20.004;2022-10-28T02:09:47;15.13;;;7.00;;
56567;SDS011;42456;49.956;20.004;2022-10-28T02:20:44;13.25;;;7.28;;
56567;SDS011;42456;49.956;20.004;2022-10-28T02:25:57;13.85;;;6.70;;
56567;SDS011;42456;49.956;20.004;2022-10-28T02:31:25;12.33;;;6.55;;
56567;SDS011;42456;49.956;20.004;2022-10-28T02:34:07;11.95;;;6.60;;
56567;SDS011;42456;49.956;20.004;2022-10-28T02:36:38;13.53;;;6.58;;
56567;SDS011;42456;49.956;20.004;2022-10-28T02:39:08;11.08;;;6.03;;
56567;SDS011;42456;49.956;20.004;2022-10-28T02:41:43;13.03;;;6.50;;
56567;SDS011;42456;49.956;20.004;2022-10-28T02:44:27;12.75;;;6.12;;
56567;SDS011;42456;49.956;20.004;2022-10-28T02:47:00;11.57;;;5.92;;
56567;SDS011;42456;49.956;20.004;2022-10-28T02:49:31;10.48;;;5.83;;
56567;SDS011;42456;49.956;20.004;2022-10-28T02:54:33;10.70;;;5.47;;
56567;SDS011;42456;49.956;20.004;2022-10-28T02:57:07;11.23;;;5.93;;
56567;SDS011;42456;49.956;20.004;2022-10-28T02:59:42;10.58;;;5.62;;
56567;SDS011;42456;49.956;20.004;2022-10-28T03:02:27;13.90;;;5.90;;
56567;SDS011;42456;49.956;20.004;2022-10-28T03:04:53;12.28;;;5.78;;
56567;SDS011;42456;49.956;20.004;2022-10-28T03:07:19;11.38;;;6.33;;
56567;SDS011;42456;49.956;20.004;2022-10-28T03:09:46;11.63;;;6.70;;
56567;SDS011;42456;49.956;20.004;2022-10-28T03:12:12;11.18;;;6.10;;
56567;SDS011;42456;49.956;20.004;2022-10-28T03:14:39;12.58;;;6.37;;
56567;SDS011;42456;49.956;20.004;2022-10-28T03:17:06;11.55;;;6.03;;
56567;SDS011;42456;49.956;20.004;2022-10-28T03:19:33;12.43;;;6.10;;
56567;SDS011;42456;49.956;20.004;2022-10-28T03:21:59;13.13;;;7.28;;
56567;SDS011;42456;49.956;20.004;2022-10-28T03:24:25;12.93;;;6.97;;
56567;SDS011;42456;49.956;20.004;2022-10-28T03:26:52;12.37;;;6.75;;
56567;SDS011;42456;49.956;20.004;2022-10-28T03:29:18;13.45;;;6.58;;
56567;SDS011;42456;49.956;20.004;2022-10-28T03:31:45;11.85;;;6.72;;
56567;SDS011;42456;49.956;20.004;2022-10-28T03:34:11;12.23;;;6.58;;
56567;SDS011;42456;49.956;20.004;2022-10-28T03:36:37;12.95;;;6.40;;
56567;SDS011;42456;49.956;20.004;2022-10-28T03:39:04;9.90;;;5.97;;
56567;SDS011;42456;49.956;20.004;2022-10-28T03:41:30;13.05;;;5.90;;
56567;SDS011;42456;49.956;20.004;2022-10-28T03:43:56;9.97;;;5.93;;
56567;SDS011;42456;49.956;20.004;2022-10-28T03:46:22;9.20;;;5.40;;
56567;SDS011;42456;49.956;20.004;2022-10-28T03:48:49;10.20;;;5.42;;
56567;SDS011;42456;49.956;20.004;2022-10-28T03:51:15;11.97;;;6.08;;
56567;SDS011;42456;49.956;20.004;2022-10-28T03:53:42;11.55;;;5.62;;
56567;SDS011;42456;49.956;20.004;2022-10-28T03:56:08;9.50;;;5.05;;
56567;SDS011;42456;49.956;20.004;2022-10-28T03:58:36;9.80;;;4.97;;
56567;SDS011;42456;49.956;20.004;2022-10-28T04:01:02;9.83;;;5.17;;
56567;SDS011;42456;49.956;20.004;2022-10-28T04:03:29;9.80;;;5.42;;
56567;SDS011;42456;49.956;20.004;2022-10-28T04:05:56;12.73;;;6.20;;
56567;SDS011;42456;49.956;20.004;2022-10-28T04:08:22;11.25;;;6.22;;
56567;SDS011;42456;49.956;20.004;2022-10-28T04:10:49;12.28;;;6.45;;
56567;SDS011;42456;49.956;20.004;2022-10-28T04:13:15;11.40;;;5.85;;
56567;SDS011;42456;49.956;20.004;2022-10-28T04:15:42;12.13;;;6.15;;
56567;SDS011;42456;49.956;20.004;2022-10-28T04:18:09;9.98;;;5.60;;
56567;SDS011;42456;49.956;20.004;2022-10-28T04:20:36;10.55;;;5.55;;
56567;SDS011;42456;49.956;20.004;2022-10-28T04:23:03;10.00;;;5.42;;
56567;SDS011;42456;49.956;20.004;2022-10-28T04:25:29;9.93;;;5.60;;
56567;SDS011;42456;49.956;20.004;2022-10-28T04:27:55;11.22;;;5.67;;
56567;SDS011;42456;49.956;20.004;2022-10-28T04:30:22;8.35;;;5.00;;
56567;SDS011;42456;49.956;20.004;2022-10-28T04:32:49;10.98;;;5.78;;
56567;SDS011;42456;49.956;20.004;2022-10-28T04:35:15;11.18;;;5.75;;
56567;SDS011;42456;49.956;20.004;2022-10-28T04:37:41;12.05;;;5.33;;
56567;SDS011;42456;49.956;20.004;2022-10-28T04:40:08;9.95;;;5.25;;
56567;SDS011;42456;49.956;20.004;2022-10-28T04:42:35;10.58;;;5.62;;
56567;SDS011;42456;49.956;20.004;2022-10-28T04:45:01;10.18;;;6.03;;
56567;SDS011;42456;49.956;20.004;2022-10-28T04:47:27;9.00;;;5.55;;
56567;SDS011;42456;49.956;20.004;2022-10-28T04:49:54;9.28;;;5.22;;
56567;SDS011;42456;49.956;20.004;2022-10-28T04:52:20;10.08;;;5.12;;
56567;SDS011;42456;49.956;20.004;2022-10-28T04:54:46;8.93;;;4.87;;
56567;SDS011;42456;49.956;20.004;2022-10-28T04:57:12;9.85;;;5.10;;
56567;SDS011;42456;49.956;20.004;2022-10-28T04:59:39;10.60;;;5.58;;
56567;SDS011;42456;49.956;20.004;2022-10-28T05:02:05;10.30;;;4.83;;
56567;SDS011;42456;49.956;20.004;2022-10-28T05:04:31;11.68;;;5.17;;
56567;SDS011;42456;49.956;20.004;2022-10-28T05:06:58;8.23;;;4.87;;
56567;SDS011;42456;49.956;20.004;2022-10-28T05:09:24;9.58;;;4.97;;
56567;SDS011;42456;49.956;20.004;2022-10-28T05:11:51;10.80;;;4.65;;
56567;SDS011;42456;49.956;20.004;2022-10-28T05:14:18;11.28;;;5.58;;
56567;SDS011;42456;49.956;20.004;2022-10-28T05:16:44;8.73;;;5.05;;
56567;SDS011;42456;49.956;20.004;2022-10-28T05:19:11;9.85;;;5.08;;
56567;SDS011;42456;49.956;20.004;2022-10-28T05:21:37;7.60;;;4.47;;
56567;SDS011;42456;49.956;20.004;2022-10-28T05:24:03;8.15;;;4.53;;
56567;SDS011;42456;49.956;20.004;2022-10-28T05:26:30;9.70;;;4.95;;
56567;SDS011;42456;49.956;20.004;2022-10-28T05:28:57;9.95;;;5.05;;
56567;SDS011;42456;49.956;20.004;2022-10-28T05:31:23;9.50;;;4.55;;
56567;SDS011;42456;49.956;20.004;2022-10-28T05:33:49;8.95;;;4.50;;
56567;SDS011;42456;49.956;20.004;2022-10-28T05:36:16;9.10;;;4.65;;
56567;SDS011;42456;49.956;20.004;2022-10-28T05:38:42;8.95;;;4.53;;
56567;SDS011;42456;49.956;20.004;2022-10-28T05:41:09;9.03;;;4.67;;
56567;SDS011;42456;49.956;20.004;2022-10-28T05:43:36;8.88;;;4.80;;
56567;SDS011;42456;49.956;20.004;2022-10-28T05:46:02;8.20;;;4.60;;
56567;SDS011;42456;49.956;20.004;2022-10-28T05:48:29;9.45;;;4.80;;
56567;SDS011;42456;49.956;20.004;2022-10-28T05:50:55;9.48;;;4.85;;
56567;SDS011;42456;49.956;20.004;2022-10-28T05:53:21;9.20;;;4.95;;
56567;SDS011;42456;49.956;20.004;2022-10-28T05:55:48;8.83;;;4.72;;
56567;SDS011;42456;49.956;20.004;2022-10-28T05:58:14;8.28;;;4.58;;
56567;SDS011;42456;49.956;20.004;2022-10-28T06:00:40;10.95;;;4.90;;
56567;SDS011;42456;49.956;20.004;2022-10-28T06:03:09;9.08;;;4.45;;
56567;SDS011;42456;49.956;20.004;2022-10-28T06:05:36;10.93;;;4.78;;
56567;SDS011;42456;49.956;20.004;2022-10-28T06:08:07;8.83;;;4.25;;
56567;SDS011;42456;49.956;20.004;2022-10-28T06:10:37;6.83;;;4.25;;
56567;SDS011;42456;49.956;20.004;2022-10-28T06:13:04;13.65;;;5.05;;
56567;SDS011;42456;49.956;20.004;2022-10-28T06:15:31;9.93;;;4.58;;
56567;SDS011;42456;49.956;20.004;2022-10-28T06:17:57;11.25;;;4.85;;
56567;SDS011;42456;49.956;20.004;2022-10-28T06:20:24;7.90;;;4.30;;
56567;SDS011;42456;49.956;20.004;2022-10-28T06:22:51;8.23;;;4.58;;
56567;SDS011;42456;49.956;20.004;2022-10-28T06:25:19;8.30;;;4.92;;
56567;SDS011;42456;49.956;20.004;2022-10-28T06:27:57;8.78;;;4.40;;
56567;SDS011;42456;49.956;20.004;2022-10-28T06:30:27;8.20;;;4.60;;
56567;SDS011;42456;49.956;20.004;2022-10-28T06:32:56;7.35;;;4.80;;
56567;SDS011;42456;49.956;20.004;2022-10-28T06:35:23;9.08;;;4.53;;
56567;SDS011;42456;49.956;20.004;2022-10-28T06:37:53;8.60;;;5.08;;
56567;SDS011;42456;49.956;20.004;2022-10-28T06:40:20;10.38;;;4.65;;
56567;SDS011;42456;49.956;20.004;2022-10-28T06:42:47;7.17;;;4.35;;
56567;SDS011;42456;49.956;20.004;2022-10-28T06:45:14;9.53;;;4.62;;
56567;SDS011;42456;49.956;20.004;2022-10-28T06:47:40;8.83;;;4.50;;
56567;SDS011;42456;49.956;20.004;2022-10-28T06:50:06;9.03;;;4.40;;
56567;SDS011;42456;49.956;20.004;2022-10-28T06:52:33;7.35;;;4.50;;
56567;SDS011;42456;49.956;20.004;2022-10-28T06:54:59;8.23;;;4.67;;
56567;SDS011;42456;49.956;20.004;2022-10-28T06:57:26;7.80;;;4.30;;
56567;SDS011;42456;49.956;20.004;2022-10-28T06:59:52;7.53;;;4.58;;
56567;SDS011;42456;49.956;20.004;2022-10-28T07:02:19;7.22;;;4.45;;
56567;SDS011;42456;49.956;20.004;2022-10-28T07:04:45;9.30;;;4.75;;
56567;SDS011;42456;49.956;20.004;2022-10-28T07:07:12;8.23;;;5.33;;
56567;SDS011;42456;49.956;20.004;2022-10-28T07:09:38;9.85;;;4.90;;
56567;SDS011;42456;49.956;20.004;2022-10-28T07:12:06;9.65;;;5.28;;
56567;SDS011;42456;49.956;20.004;2022-10-28T07:14:33;10.03;;;4.45;;
56567;SDS011;42456;49.956;20.004;2022-10-28T07:16:59;8.80;;;4.28;;
56567;SDS011;42456;49.956;20.004;2022-10-28T07:19:26;7.92;;;4.10;;
56567;SDS011;42456;49.956;20.004;2022-10-28T07:21:52;10.38;;;4.30;;
56567;SDS011;42456;49.956;20.004;2022-10-28T07:24:19;9.05;;;4.67;;
56567;SDS011;42456;49.956;20.004;2022-10-28T07:26:48;10.68;;;4.90;;
56567;SDS011;42456;49.956;20.004;2022-10-28T07:29:15;8.43;;;4.95;;
56567;SDS011;42456;49.956;20.004;2022-10-28T07:31:41;7.70;;;4.37;;
56567;SDS011;42456;49.956;20.004;2022-10-28T07:34:07;8.93;;;4.95;;
56567;SDS011;42456;49.956;20.004;2022-10-28T07:36:34;7.78;;;4.58;;
56567;SDS011;42456;49.956;20.004;2022-10-28T07:39:00;8.15;;;4.72;;
56567;SDS011;42456;49.956;20.004;2022-10-28T07:41:26;8.70;;;4.90;;
56567;SDS011;42456;49.956;20.004;2022-10-28T07:43:53;8.70;;;4.50;;
56567;SDS011;42456;49.956;20.004;2022-10-28T07:46:19;11.50;;;4.53;;
56567;SDS011;42456;49.956;20.004;2022-10-28T07:48:45;7.30;;;4.20;;
56567;SDS011;42456;49.956;20.004;2022-10-28T07:51:12;6.60;;;4.00;;
56567;SDS011;42456;49.956;20.004;2022-10-28T07:53:39;6.90;;;3.90;;
56567;SDS011;42456;49.956;20.004;2022-10-28T07:56:07;8.15;;;4.15;;
56567;SDS011;42456;49.956;20.004;2022-10-28T07:58:37;7.28;;;4.00;;
56567;SDS011;42456;49.956;20.004;2022-10-28T08:01:05;5.85;;;3.77;;
56567;SDS011;42456;49.956;20.004;2022-10-28T08:03:32;5.15;;;3.40;;
56567;SDS011;42456;49.956;20.004;2022-10-28T08:06:04;5.47;;;3.40;;
56567;SDS011;42456;49.956;20.004;2022-10-28T08:08:34;5.40;;;3.27;;
56567;SDS011;42456;49.956;20.004;2022-10-28T08:11:07;5.72;;;3.20;;
56567;SDS011;42456;49.956;20.004;2022-10-28T08:13:39;7.53;;;3.40;;
56567;SDS011;42456;49.956;20.004;2022-10-28T08:16:06;5.72;;;3.50;;
56567;SDS011;42456;49.956;20.004;2022-10-28T08:18:33;4.85;;;3.20;;
56567;SDS011;42456;49.956;20.004;2022-10-28T08:21:01;4.72;;;3.08;;
56567;SDS011;42456;49.956;20.004;2022-10-28T08:23:29;4.92;;;2.87;;
56567;SDS011;42456;49.956;20.004;2022-10-28T08:25:55;8.55;;;3.10;;
56567;SDS011;42456;49.956;20.004;2022-10-28T08:28:22;5.90;;;2.80;;
56567;SDS011;42456;49.956;20.004;2022-10-28T08:30:48;6.30;;;3.17;;
56567;SDS011;42456;49.956;20.004;2022-10-28T08:33:15;6.85;;;3.70;;
56567;SDS011;42456;49.956;20.004;2022-10-28T08:35:42;7.17;;;3.40;;
56567;SDS011;42456;49.956;20.004;2022-10-28T08:38:10;5.53;;;3.25;;
56567;SDS011;42456;49.956;20.004;2022-10-28T08:43:51;5.58;;;2.75;;
56567;SDS011;42456;49.956;20.004;2022-10-28T08:49:30;4.42;;;3.00;;
56567;SDS011;42456;49.956;20.004;2022-10-28T08:52:02;6.55;;;3.00;;
56567;SDS011;42456;49.956;20.004;2022-10-28T08:54:49;5.97;;;3.05;;
56567;SDS011;42456;49.956;20.004;2022-10-28T08:57:24;4.58;;;2.62;;
56567;SDS011;42456;49.956;20.004;2022-10-28T09:00:04;4.42;;;2.77;;
56567;SDS011;42456;49.956;20.004;2022-10-28T09:02:57;5.45;;;3.02;;
56567;SDS011;42456;49.956;20.004;2022-10-28T09:05:19;5.10;;;2.92;;
56567;SDS011;42456;49.956;20.004;2022-10-28T09:07:52;4.45;;;2.80;;
56567;SDS011;42456;49.956;20.004;2022-10-28T09:10:37;5.22;;;2.95;;
56567;SDS011;42456;49.956;20.004;2022-10-28T09:13:39;3.85;;;2.62;;
56567;SDS011;42456;49.956;20.004;2022-10-28T09:18:57;9.48;;;3.40;;
56567;SDS011;42456;49.956;20.004;2022-10-28T09:21:31;6.35;;;3.12;;
56567;SDS011;42456;49.956;20.004;2022-10-28T09:29:23;9.35;;;3.70;;
56567;SDS011;42456;49.956;20.004;2022-10-28T09:32:03;6.65;;;2.92;;
56567;SDS011;42456;49.956;20.004;2022-10-28T09:37:40;7.42;;;2.80;;
56567;SDS011;42456;49.956;20.004;2022-10-28T09:40:04;4.65;;;2.70;;
56567;SDS011;42456;49.956;20.004;2022-10-28T09:42:42;7.95;;;2.90;;
56567;SDS011;42456;49.956;20.004;2022-10-28T09:45:11;8.08;;;3.67;;
56567;SDS011;42456;49.956;20.004;2022-10-28T09:47:43;6.28;;;2.87;;
56567;SDS011;42456;49.956;20.004;2022-10-28T09:50:25;5.60;;;3.00;;
56567;SDS011;42456;49.956;20.004;2022-10-28T09:55:48;6.75;;;2.95;;
56567;SDS011;42456;49.956;20.004;2022-10-28T09:58:15;4.92;;;3.02;;
56567;SDS011;42456;49.956;20.004;2022-10-28T10:00:42;5.65;;;2.87;;
56567;SDS011;42456;49.956;20.004;2022-10-28T10:03:08;5.40;;;2.65;;
56567;SDS011;42456;49.956;20.004;2022-10-28T10:05:39;5.00;;;3.08;;
56567;SDS011;42456;49.956;20.004;2022-10-28T10:08:13;5.78;;;2.70;;
56567;SDS011;42456;49.956;20.004;2022-10-28T10:13:29;5.60;;;2.98;;
56567;SDS011;42456;49.956;20.004;2022-10-28T10:18:30;5.12;;;2.77;;
56567;SDS011;42456;49.956;20.004;2022-10-28T10:20:58;7.65;;;2.98;;
56567;SDS011;42456;49.956;20.004;2022-10-28T10:23:36;5.22;;;2.70;;
56567;SDS011;42456;49.956;20.004;2022-10-28T10:28:47;5.17;;;2.62;;
56567;SDS011;42456;49.956;20.004;2022-10-28T10:31:25;3.58;;;2.62;;
56567;SDS011;42456;49.956;20.004;2022-10-28T10:33:57;5.22;;;2.77;;
56567;SDS011;42456;49.956;20.004;2022-10-28T10:36:24;4.87;;;3.12;;
56567;SDS011;42456;49.956;20.004;2022-10-28T10:38:54;6.05;;;3.40;;
56567;SDS011;42456;49.956;20.004;2022-10-28T10:41:35;10.63;;;4.15;;
56567;SDS011;42456;49.956;20.004;2022-10-28T10:49:34;11.60;;;5.80;;
56567;SDS011;42456;49.956;20.004;2022-10-28T10:52:05;12.60;;;6.25;;
56567;SDS011;42456;49.956;20.004;2022-10-28T10:54:41;10.82;;;5.05;;
56567;SDS011;42456;49.956;20.004;2022-10-28T10:57:24;6.12;;;3.27;;
56567;SDS011;42456;49.956;20.004;2022-10-28T10:59:52;4.58;;;2.83;;
56567;SDS011;42456;49.956;20.004;2022-10-28T11:02:21;6.77;;;2.80;;
56567;SDS011;42456;49.956;20.004;2022-10-28T11:07:28;5.10;;;3.00;;
56567;SDS011;42456;49.956;20.004;2022-10-28T11:09:56;7.07;;;2.80;;
56567;SDS011;42456;49.956;20.004;2022-10-28T11:12:24;6.17;;;2.90;;
56567;SDS011;42456;49.956;20.004;2022-10-28T11:14:59;7.80;;;2.87;;
56567;SDS011;42456;49.956;20.004;2022-10-28T11:17:30;6.00;;;2.95;;
56567;SDS011;42456;49.956;20.004;2022-10-28T11:19:59;6.00;;;2.90;;
56567;SDS011;42456;49.956;20.004;2022-10-28T11:25:35;5.40;;;2.87;;
56567;SDS011;42456;49.956;20.004;2022-10-28T11:28:18;7.62;;;2.75;;
56567;SDS011;42456;49.956;20.004;2022-10-28T11:34:01;5.60;;;2.80;;
56567;SDS011;42456;49.956;20.004;2022-10-28T11:36:57;5.85;;;2.80;;
56567;SDS011;42456;49.956;20.004;2022-10-28T11:40:01;4.22;;;2.75;;
56567;SDS011;42456;49.956;20.004;2022-10-28T11:45:32;3.62;;;2.40;;
56567;SDS011;42456;49.956;20.004;2022-10-28T11:50:51;5.80;;;2.60;;
56567;SDS011;42456;49.956;20.004;2022-10-28T11:53:35;5.78;;;2.67;;
56567;SDS011;42456;49.956;20.004;2022-10-28T12:04:51;16.73;;;7.53;;
56567;SDS011;42456;49.956;20.004;2022-10-28T12:15:59;13.70;;;6.85;;
56567;SDS011;42456;49.956;20.004;2022-10-28T12:21:24;18.42;;;7.65;;
56567;SDS011;42456;49.956;20.004;2022-10-28T12:23:54;17.10;;;8.38;;
56567;SDS011;42456;49.956;20.004;2022-10-28T12:26:26;15.00;;;7.53;;
56567;SDS011;42456;49.956;20.004;2022-10-28T12:28:57;12.88;;;5.90;;
56567;SDS011;42456;49.956;20.004;2022-10-28T12:31:32;14.05;;;6.40;;
56567;SDS011;42456;49.956;20.004;2022-10-28T12:34:09;14.03;;;6.40;;
56567;SDS011;42456;49.956;20.004;2022-10-28T12:36:41;16.15;;;7.17;;
56567;SDS011;42456;49.956;20.004;2022-10-28T12:39:14;17.73;;;8.00;;
56567;SDS011;42456;49.956;20.004;2022-10-28T12:44:27;19.35;;;8.63;;
56567;SDS011;42456;49.956;20.004;2022-10-28T13:01:08;15.45;;;7.22;;
56567;SDS011;42456;49.956;20.004;2022-10-28T13:03:38;21.52;;;8.73;;
56567;SDS011;42456;49.956;20.004;2022-10-28T13:06:09;16.67;;;8.68;;
56567;SDS011;42456;49.956;20.004;2022-10-28T13:09:00;16.95;;;7.83;;
56567;SDS011;42456;49.956;20.004;2022-10-28T13:28:44;16.57;;;7.28;;
56567;SDS011;42456;49.956;20.004;2022-10-28T13:31:13;16.12;;;7.53;;
56567;SDS011;42456;49.956;20.004;2022-10-28T13:33:49;14.47;;;6.87;;
56567;SDS011;42456;49.956;20.004;2022-10-28T13:38:55;15.15;;;6.60;;
56567;SDS011;42456;49.956;20.004;2022-10-28T13:41:28;11.88;;;6.80;;
56567;SDS011;42456;49.956;20.004;2022-10-28T13:49:28;13.70;;;6.42;;
56567;SDS011;42456;49.956;20.004;2022-10-28T13:57:27;13.60;;;6.72;;
56567;SDS011;42456;49.956;20.004;2022-10-28T14:10:58;14.85;;;7.47;;
56567;SDS011;42456;49.956;20.004;2022-10-28T14:13:54;18.10;;;7.78;;
56567;SDS011;42456;49.956;20.004;2022-10-28T14:19:00;16.77;;;7.58;;
56567;SDS011;42456;49.956;20.004;2022-10-28T14:24:39;17.73;;;7.80;;
56567;SDS011;42456;49.956;20.004;2022-10-28T14:29:43;20.48;;;9.30;;
56567;SDS011;42456;49.956;20.004;2022-10-28T14:37:49;20.20;;;9.80;;
56567;SDS011;42456;49.956;20.004;2022-10-28T14:40:39;20.15;;;11.43;;
56567;SDS011;42456;49.956;20.004;2022-10-28T14:49:01;18.62;;;8.05;;
56567;SDS011;42456;49.956;20.004;2022-10-28T14:51:38;17.67;;;9.20;;
56567;SDS011;42456;49.956;20.004;2022-10-28T14:54:07;18.60;;;9.20;;
56567;SDS011;42456;49.956;20.004;2022-10-28T14:56:40;16.37;;;7.92;;
56567;SDS011;42456;49.956;20.004;2022-10-28T15:04:45;18.30;;;7.30;;
56567;SDS011;42456;49.956;20.004;2022-10-28T15:07:15;12.85;;;7.25;;
56567;SDS011;42456;49.956;20.004;2022-10-28T15:09:44;15.23;;;7.55;;
56567;SDS011;42456;49.956;20.004;2022-10-28T15:12:14;17.57;;;7.50;;
56567;SDS011;42456;49.956;20.004;2022-10-28T15:14:49;15.10;;;7.70;;
56567;SDS011;42456;49.956;20.004;2022-10-28T15:17:21;14.68;;;7.50;;
56567;SDS011;42456;49.956;20.004;2022-10-28T15:19:59;17.07;;;7.12;;
56567;SDS011;42456;49.956;20.004;2022-10-28T15:22:27;13.75;;;7.90;;
56567;SDS011;42456;49.956;20.004;2022-10-28T15:24:58;17.92;;;7.95;;
56567;SDS011;42456;49.956;20.004;2022-10-28T15:27:32;21.20;;;8.23;;
56567;SDS011;42456;49.956;20.004;2022-10-28T15:32:46;15.75;;;8.33;;
56567;SDS011;42456;49.956;20.004;2022-10-28T15:38:00;18.15;;;7.97;;
56567;SDS011;42456;49.956;20.004;2022-10-28T15:40:42;16.93;;;8.05;;
56567;SDS011;42456;49.956;20.004;2022-10-28T15:43:16;17.27;;;8.55;;
56567;SDS011;42456;49.956;20.004;2022-10-28T15:45:45;21.12;;;10.63;;
56567;SDS011;42456;49.956;20.004;2022-10-28T15:48:18;27.20;;;13.78;;
56567;SDS011;42456;49.956;20.004;2022-10-28T15:53:42;25.17;;;11.10;;
56567;SDS011;42456;49.956;20.004;2022-10-28T15:59:13;27.93;;;15.53;;
56567;SDS011;42456;49.956;20.004;2022-10-28T16:01:44;25.40;;;11.78;;
56567;SDS011;42456;49.956;20.004;2022-10-28T16:06:56;22.70;;;12.30;;
56567;SDS011;42456;49.956;20.004;2022-10-28T16:12:04;19.67;;;10.90;;
56567;SDS011;42456;49.956;20.004;2022-10-28T16:14:42;23.42;;;11.08;;
56567;SDS011;42456;49.956;20.004;2022-10-28T16:17:24;25.30;;;12.98;;
56567;SDS011;42456;49.956;20.004;2022-10-28T16:22:27;23.50;;;12.85;;
56567;SDS011;42456;49.956;20.004;2022-10-28T16:24:55;23.60;;;10.95;;
56567;SDS011;42456;49.956;20.004;2022-10-28T16:27:23;23.87;;;10.78;;
56567;SDS011;42456;49.956;20.004;2022-10-28T16:29:54;22.45;;;11.73;;
56567;SDS011;42456;49.956;20.004;2022-10-28T16:32:25;24.50;;;13.93;;
56567;SDS011;42456;49.956;20.004;2022-10-28T16:34:54;32.50;;;16.15;;
56567;SDS011;42456;49.956;20.004;2022-10-28T16:39:52;30.77;;;15.90;;
56567;SDS011;42456;49.956;20.004;2022-10-28T16:42:19;30.43;;;16.87;;
56567;SDS011;42456;49.956;20.004;2022-10-28T16:44:49;27.35;;;15.93;;
56567;SDS011;42456;49.956;20.004;2022-10-28T16:47:17;30.55;;;15.98;;
56567;SDS011;42456;49.956;20.004;2022-10-28T16:49:45;29.30;;;15.53;;
56567;SDS011;42456;49.956;20.004;2022-10-28T16:52:16;25.40;;;14.73;;
56567;SDS011;42456;49.956;20.004;2022-10-28T16:54:48;28.38;;;15.40;;
56567;SDS011;42456;49.956;20.004;2022-10-28T16:57:16;25.50;;;14.35;;
56567;SDS011;42456;49.956;20.004;2022-10-28T16:59:43;25.10;;;14.60;;
56567;SDS011;42456;49.956;20.004;2022-10-28T17:02:18;26.42;;;13.38;;
56567;SDS011;42456;49.956;20.004;2022-10-28T17:04:51;21.02;;;11.57;;
56567;SDS011;42456;49.956;20.004;2022-10-28T17:07:17;22.30;;;12.88;;
56567;SDS011;42456;49.956;20.004;2022-10-28T17:09:44;27.37;;;13.35;;
56567;SDS011;42456;49.956;20.004;2022-10-28T17:12:15;25.77;;;13.75;;
56567;SDS011;42456;49.956;20.004;2022-10-28T17:14:40;25.72;;;12.40;;
56567;SDS011;42456;49.956;20.004;2022-10-28T17:17:07;23.32;;;12.23;;
56567;SDS011;42456;49.956;20.004;2022-10-28T17:19:34;21.33;;;10.98;;
56567;SDS011;42456;49.956;20.004;2022-10-28T17:22:04;23.12;;;11.48;;
56567;SDS011;42456;49.956;20.004;2022-10-28T17:24:32;25.97;;;12.75;;
56567;SDS011;42456;49.956;20.004;2022-10-28T17:26:59;22.22;;;12.00;;
56567;SDS011;42456;49.956;20.004;2022-10-28T17:29:26;20.23;;;11.08;;
56567;SDS011;42456;49.956;20.004;2022-10-28T17:31:53;21.12;;;11.03;;
56567;SDS011;42456;49.956;20.004;2022-10-28T17:34:19;22.00;;;11.85;;
56567;SDS011;42456;49.956;20.004;2022-10-28T17:36:45;20.80;;;11.55;;
56567;SDS011;42456;49.956;20.004;2022-10-28T17:39:12;26.85;;;13.35;;
56567;SDS011;42456;49.956;20.004;2022-10-28T17:41:38;28.00;;;14.98;;
56567;SDS011;42456;49.956;20.004;2022-10-28T17:44:07;29.32;;;15.85;;
56567;SDS011;42456;49.956;20.004;2022-10-28T17:46:33;33.63;;;17.95;;
56567;SDS011;42456;49.956;20.004;2022-10-28T17:49:00;32.45;;;20.10;;
56567;SDS011;42456;49.956;20.004;2022-10-28T17:51:28;35.17;;;19.73;;
56567;SDS011;42456;49.956;20.004;2022-10-28T17:53:55;38.00;;;22.17;;
56567;SDS011;42456;49.956;20.004;2022-10-28T17:56:22;51.37;;;28.23;;
56567;SDS011;42456;49.956;20.004;2022-10-28T17:58:50;72.82;;;36.03;;
56567;SDS011;42456;49.956;20.004;2022-10-28T18:01:17;58.97;;;29.77;;
56567;SDS011;42456;49.956;20.004;2022-10-28T18:03:47;44.63;;;23.22;;
56567;SDS011;42456;49.956;20.004;2022-10-28T18:06:15;38.55;;;22.37;;
56567;SDS011;42456;49.956;20.004;2022-10-28T18:08:42;37.73;;;18.60;;
56567;SDS011;42456;49.956;20.004;2022-10-28T18:11:09;35.75;;;17.80;;
56567;SDS011;42456;49.956;20.004;2022-10-28T18:13:39;42.65;;;21.48;;
56567;SDS011;42456;49.956;20.004;2022-10-28T18:16:10;56.08;;;27.65;;
56567;SDS011;42456;49.956;20.004;2022-10-28T18:18:39;51.90;;;26.33;;